createdAt,value
2022-11-26T00:01:46.236Z,2.80
2022-11-26T00:04:14.236Z,5.03
2022-11-26T00:06:45.024Z,4.10
2022-11-26T00:09:16.852Z,5.28
2022-11-26T00:11:46.863Z,6.38
2022-11-26T00:14:15.584Z,5.35
2022-11-26T00:16:44.007Z,4.53
2022-11-26T00:19:11.992Z,5.25
2022-11-26T00:21:42.486Z,5.20
2022-11-26T00:24:28.393Z,5.35
2022-11-26T00:26:59.253Z,3.10
2022-11-26T00:29:27.059Z,3.03
2022-11-26T00:31:54.840Z,2.80
2022-11-26T00:34:22.906Z,3.97
2022-11-26T00:36:50.750Z,3.60
2022-11-26T00:39:21.750Z,3.00
2022-11-26T00:41:51.847Z,2.90
2022-11-26T00:44:23.429Z,4.35
2022-11-26T00:46:57.466Z,4.35
2022-11-26T00:49:25.487Z,3.17
2022-11-26T00:51:53.354Z,2.03
2022-11-26T00:54:22.083Z,4.05
2022-11-26T00:56:50.975Z,3.10
2022-11-26T00:59:23.357Z,2.28
2022-11-26T01:01:51.412Z,3.38
2022-11-26T01:04:19.380Z,3.38
2022-11-26T01:06:47.353Z,3.47
2022-11-26T01:09:19.008Z,3.13
2022-11-26T01:11:52.391Z,2.60
2022-11-26T01:14:23.967Z,3.25
2022-11-26T01:16:53.725Z,2.13
2022-11-26T01:19:21.746Z,3.08
2022-11-26T01:21:49.707Z,4.72
2022-11-26T01:24:17.629Z,5.00
2022-11-26T01:26:45.878Z,2.95
2022-11-26T01:29:16.796Z,2.53
2022-11-26T01:31:46.714Z,2.80
2022-11-26T01:34:15.155Z,3.92
2022-11-26T01:36:48.859Z,2.47
2022-11-26T01:39:18.172Z,2.83
2022-11-26T01:41:51.991Z,2.53
2022-11-26T01:44:22.193Z,2.28
2022-11-26T01:46:52.578Z,3.58
2022-11-26T01:49:22.711Z,3.45
2022-11-26T01:51:56.827Z,3.10
2022-11-26T01:54:25.237Z,2.53
2022-11-26T01:56:56.969Z,2.85
2022-11-26T01:59:29.077Z,2.58
2022-11-26T02:02:00.162Z,2.55
2022-11-26T02:04:31.467Z,2.47
2022-11-26T02:07:00.609Z,4.57
2022-11-26T02:09:29.889Z,2.42
2022-11-26T02:11:58.127Z,2.33
2022-11-26T02:14:29.110Z,3.42
2022-11-26T02:17:13.513Z,2.05
2022-11-26T02:20:18.069Z,2.90
2022-11-26T02:23:16.830Z,2.38
2022-11-26T02:26:23.724Z,2.20
2022-11-26T02:29:12.274Z,3.22
2022-11-26T02:31:49.143Z,2.83
2022-11-26T02:34:24.313Z,2.10
2022-11-26T02:36:55.889Z,1.90
2022-11-26T02:39:25.692Z,1.13
2022-11-26T02:41:55.166Z,2.72
2022-11-26T02:44:25.372Z,3.15
2022-11-26T02:47:01.271Z,2.75
2022-11-26T02:49:31.558Z,2.17
2022-11-26T02:52:02.516Z,2.80
2022-11-26T02:54:31.463Z,1.67
2022-11-26T02:57:00.752Z,2.20
2022-11-26T02:59:29.177Z,1.95
2022-11-26T03:02:02.002Z,2.30
2022-11-26T03:04:33.230Z,3.10
2022-11-26T03:07:04.794Z,2.38
2022-11-26T03:09:40.668Z,2.97
2022-11-26T03:12:08.756Z,1.73
2022-11-26T03:14:36.909Z,1.95
2022-11-26T03:17:06.419Z,2.33
2022-11-26T03:19:34.209Z,2.25
2022-11-26T03:22:02.270Z,2.85
2022-11-26T03:24:30.505Z,4.18
2022-11-26T03:26:58.510Z,2.95
2022-11-26T03:29:26.691Z,3.20
2022-11-26T03:31:54.632Z,2.70
2022-11-26T03:34:24.000Z,3.22
2022-11-26T03:36:51.951Z,2.50
2022-11-26T03:39:19.812Z,2.75
2022-11-26T03:41:47.852Z,2.40
2022-11-26T03:44:15.820Z,2.28
2022-11-26T03:46:43.766Z,2.72
2022-11-26T03:49:11.737Z,2.42
2022-11-26T03:51:41.185Z,2.03
2022-11-26T03:54:09.870Z,3.33
2022-11-26T03:56:37.756Z,2.08
2022-11-26T03:59:05.561Z,1.90
2022-11-26T04:01:33.717Z,2.60
2022-11-26T04:04:01.593Z,3.95
2022-11-26T04:06:29.569Z,3.03
2022-11-26T04:08:59.001Z,2.33
2022-11-26T04:11:26.992Z,2.63
2022-11-26T04:13:54.800Z,4.15
2022-11-26T04:16:23.157Z,3.90
2022-11-26T04:18:51.010Z,4.93
2022-11-26T04:21:18.920Z,3.10
2022-11-26T04:23:46.835Z,2.78
2022-11-26T04:26:16.242Z,1.90
2022-11-26T04:28:45.361Z,3.72
2022-11-26T04:31:13.460Z,3.10
2022-11-26T04:33:41.991Z,2.60
2022-11-26T04:36:10.492Z,3.30
2022-11-26T04:38:38.713Z,3.50
2022-11-26T04:41:06.741Z,2.95
2022-11-26T04:43:36.085Z,3.45
2022-11-26T04:46:04.157Z,2.58
2022-11-26T04:48:32.225Z,3.42
2022-11-26T04:51:00.277Z,3.78
2022-11-26T04:53:28.313Z,3.25
2022-11-26T04:55:56.363Z,3.10
2022-11-26T04:58:24.294Z,3.28
2022-11-26T05:00:53.868Z,3.92
2022-11-26T05:03:21.774Z,4.40
2022-11-26T05:05:50.223Z,3.17
2022-11-26T05:08:18.261Z,4.40
2022-11-26T05:10:46.382Z,3.17
2022-11-26T05:13:14.573Z,3.65
2022-11-26T05:15:42.465Z,3.20
2022-11-26T05:18:12.823Z,3.58
2022-11-26T05:20:40.862Z,4.20
2022-11-26T05:23:08.824Z,3.13
2022-11-26T05:25:36.712Z,6.85
2022-11-26T05:28:04.869Z,5.32
2022-11-26T05:30:33.342Z,4.90
2022-11-26T05:33:01.191Z,3.70
2022-11-26T05:35:30.716Z,2.95
2022-11-26T05:37:58.632Z,3.95
2022-11-26T05:40:39.206Z,3.08
2022-11-26T05:43:07.447Z,5.32
2022-11-26T05:45:35.595Z,3.40
2022-11-26T05:48:03.887Z,3.30
2022-11-26T05:50:33.777Z,3.63
2022-11-26T05:53:02.107Z,3.28
2022-11-26T05:55:29.978Z,3.70
2022-11-26T05:57:58.168Z,4.50
2022-11-26T06:00:26.419Z,5.18
2022-11-26T06:02:54.681Z,3.80
2022-11-26T06:05:22.796Z,4.45
2022-11-26T06:07:52.706Z,5.50
2022-11-26T06:10:21.207Z,4.35
2022-11-26T06:12:49.237Z,4.00
2022-11-26T06:15:17.518Z,3.20
2022-11-26T06:17:45.587Z,4.53
2022-11-26T06:20:14.513Z,4.82
2022-11-26T06:22:43.627Z,3.83
2022-11-26T06:25:14.783Z,4.15
2022-11-26T06:27:43.077Z,5.28
2022-11-26T06:30:12.537Z,5.65
2022-11-26T06:32:40.636Z,5.78
2022-11-26T06:35:09.426Z,5.43
2022-11-26T06:37:37.567Z,4.03
2022-11-26T06:40:06.908Z,4.85
2022-11-26T06:42:36.516Z,5.90
2022-11-26T06:45:05.297Z,4.93
2022-11-26T06:47:33.386Z,4.60
2022-11-26T06:50:04.158Z,7.50
2022-11-26T06:52:36.157Z,5.35
2022-11-26T06:55:04.618Z,6.22
2022-11-26T06:57:32.781Z,4.95
2022-11-26T07:00:02.386Z,6.25
2022-11-26T07:02:30.547Z,5.65
2022-11-26T07:04:58.706Z,5.40
